Latest Weather Observations for Grafton Airport

IDN60801

Issued at 10:33 am EST Sunday 26 June 2016 (issued every 30 minutes, with the page automatically refreshed every 10 minutes)

About weather observations | Map of weather stations | Latest weather observations for NSW | Other Formats
Station Details ID: 058161 Name: GRAFTON AIRPORT AWS Lat: -29.76 Lon: 153.03 Height: 25.09 m
Data from the previous 72 hours. | See also: Recent months at Grafton Airport
Date/Time
EST
Temp
°C
App
Temp
°C
Dew
Point
°C
Rel
Hum
%
Delta-T
°C
Wind Press
QNH
hPa
Press
MSL
hPa
Rain since
9am
mm
Dir  Spd
km/h
Gust
km/h
Spd
kts
Gust
kts
26/10:30am 8.6 7.0 2.4 65 2.6 CALM 0 0 0 0 1021.9 1021.9 0.0
26/10:00am 7.8 6.3 2.9 71 2.1 CALM 0 0 0 0 1021.8 1021.8 0.0
26/09:30am 6.5 5.0 3.1 79 1.4 CALM 0 0 0 0 1022.0 1022.0 0.0
26/09:00am 5.5 2.8 2.5 81 1.2 NNE 6 7 3 4 1022.1 1022.1 0.0
26/08:30am 3.9 2.0 2.6 91 0.5 N 2 6 1 3 1022.1 1022.1 0.0
26/08:00am 3.1 1.5 2.4 95 0.3 CALM 0 0 0 0 1021.7 1021.7 0.0
26/07:30am 1.9 0.1 1.5 97 0.2 CALM 0 0 0 0 1021.4 1021.4 0.0
26/07:00am 1.1 -0.8 0.7 97 0.1 CALM 0 6 0 3 1021.6 1021.6 0.0
26/06:30am 0.6 -1.4 0.0 96 0.2 CALM 0 0 0 0 1021.2 1021.2 0.0
26/06:00am 0.8 -1.5 0.4 97 0.1 ESE 2 7 1 4 1020.8 1020.8 0.0
26/05:41am 0.4 -2.9 0.0 97 0.1 E 7 7 4 4 1020.8 1020.8 0.0
26/05:30am -0.1 -2.9 -0.7 96 0.2 SE 4 7 2 4 1020.6 1020.6 0.0
26/05:14am -0.5 -2.7 -1.2 95 0.2 CALM 0 0 0 0 1020.1 1020.1 0.0
26/05:00am -0.1 -2.6 -0.8 95 0.2 S 2 6 1 3 1020.3 1020.3 0.0
26/04:30am 0.1 -2.0 -0.7 94 0.3 CALM 0 0 0 0 1020.1 1020.1 0.0
26/04:00am 0.5 -2.3 -0.5 93 0.4 S 4 6 2 3 1019.5 1019.5 0.0
26/03:30am 1.2 -1.9 0.3 94 0.3 S 6 7 3 4 1019.8 1019.8 0.0
26/03:04am 1.2 -2.4 0.3 94 0.3 S 9 11 5 6 1019.6 1019.6 0.0
26/03:00am 1.2 -2.1 0.3 94 0.3 S 7 11 4 6 1019.6 1019.6 0.0
26/02:43am 0.7 -1.8 -0.7 90 0.5 SSW 2 7 1 4 1019.7 1019.7 0.0
26/02:30am 1.5 -1.6 0.3 92 0.4 SSW 6 7 3 4 1019.7 1019.7 0.0
26/02:00am 1.9 -1.3 0.9 93 0.4 S 7 9 4 5 1019.7 1019.7 0.0
26/01:30am 2.0 0.2 1.0 93 0.4 CALM 0 0 0 0 1020.1 1020.1 0.0
26/01:00am 2.1 -1.1 0.9 92 0.5 S 7 9 4 5 1020.2 1020.2 0.0
26/12:30am 2.3 -0.7 1.1 92 0.5 SSW 6 9 3 5 1020.2 1020.2 0.0
26/12:00am 2.2 -1.0 1.0 92 0.5 SSW 7 9 4 5 1020.2 1020.2 0.0
 
Date/Time
EST
Temp
°C
App
Temp
°C
Dew
Point
°C
Rel
Hum
%
Delta-T
°C
Wind Press
QNH
hPa
Press
MSL
hPa
Rain since
9am
mm
Dir  Spd
km/h
Gust
km/h
Spd
kts
Gust
kts
25/11:30pm 2.2 -0.1 0.7 90 0.6 SW 2 7 1 4 1020.5 1020.5 0.0
25/11:00pm 2.8 -0.7 1.2 89 0.6 SSW 9 11 5 6 1020.3 1020.3 0.0
25/10:30pm 3.1 0.2 1.3 88 0.7 SSW 6 9 3 5 1020.3 1020.3 0.0
25/10:00pm 3.5 0.4 1.1 84 0.9 SSW 7 9 4 5 1020.2 1020.2 0.0
25/09:30pm 4.0 0.6 1.7 85 0.9 SSW 9 11 5 6 1020.3 1020.3 0.0
25/09:00pm 4.9 3.2 1.7 80 1.3 CALM 0 0 0 0 1020.0 1020.0 0.0
25/08:30pm 4.7 2.6 1.7 81 1.2 SW 2 6 1 3 1019.9 1019.9 0.0
25/08:00pm 5.2 1.8 1.9 79 1.3 S 9 11 5 6 1019.5 1019.5 0.0
25/07:30pm 6.2 3.7 1.5 72 1.9 S 4 7 2 4 1019.1 1019.1 0.0
25/07:00pm 7.1 5.3 1.4 67 2.3 CALM 0 0 0 0 1018.8 1018.8 0.0
25/06:30pm 8.3 6.4 0.5 58 3.1 CALM 0 0 0 0 1018.4 1018.4 0.0
25/06:00pm 9.6 7.6 0.0 51 3.8 CALM 0 0 0 0 1018.2 1018.2 0.0
25/05:30pm 10.8 8.8 -0.3 46 4.5 CALM 0 0 0 0 1017.9 1017.9 0.0
25/05:00pm 12.2 10.2 -0.3 42 5.1 CALM 0 0 0 0 1017.5 1017.5 0.0
25/04:30pm 14.7 12.3 -3.1 29 7.0 CALM 0 0 0 0 1017.4 1017.4 0.0
25/04:00pm 17.0 13.9 -2.6 26 8.0 WSW 4 7 2 4 1017.2 1017.2 0.0
25/03:30pm 16.9 13.2 -3.2 25 8.1 SSW 7 11 4 6 1016.9 1016.9 0.0
25/03:00pm 16.9 12.5 -5.5 21 8.6 W 9 15 5 8 1016.9 1016.9 0.0
25/02:30pm 17.1 12.5 -4.2 23 8.4 W 11 20 6 11 1016.7 1016.7 0.0
25/02:00pm 16.8 12.9 -5.0 22 8.4 NW 7 15 4 8 1016.7 1016.7 0.0
25/01:30pm 17.0 12.9 -3.1 25 8.1 NW 9 13 5 7 1016.8 1016.8 0.0
25/01:00pm 15.8 11.6 -4.2 25 7.8 WSW 9 19 5 10 1016.9 1016.9 0.0
25/12:30pm 15.5 11.2 -4.4 25 7.7 WSW 9 19 5 10 1017.1 1017.1 0.0
25/12:00pm 15.3 10.6 -5.1 24 7.7 SW 11 20 6 11 1017.5 1017.5 0.0
25/11:30am 15.2 10.5 -4.7 25 7.6 SW 11 28 6 15 1017.6 1017.6 0.0
25/11:00am 14.6 9.2 -4.2 27 7.2 SW 15 22 8 12 1017.8 1017.8 0.0
25/10:30am 14.0 9.5 -3.3 30 6.7 WSW 11 20 6 11 1017.9 1017.9 0.0
25/10:00am 13.4 8.5 -3.4 31 6.5 WSW 13 24 7 13 1018.0 1018.0 0.0
25/09:30am 12.4 7.5 -3.8 32 6.1 WSW 13 20 7 11 1018.0 1018.0 0.0
25/09:00am 11.7 7.2 -2.9 36 5.6 W 11 17 6 9 1017.9 1017.9 0.0
25/08:30am 10.8 6.8 -1.9 41 4.9 WSW 9 15 5 8 1017.7 1017.7 0.0
25/08:00am 9.5 5.2 -1.5 46 4.2 WSW 11 15 6 8 1017.3 1017.3 0.0
25/07:30am 6.8 3.3 -1.3 56 3.0 WSW 7 11 4 6 1017.1 1017.1 0.0
25/07:00am 7.4 4.7 -2.6 49 3.7 SW 2 6 1 3 1017.1 1017.1 0.0
25/06:30am 7.6 3.6 -2.1 50 3.6 WSW 9 13 5 7 1016.7 1016.7 0.0
25/06:00am 7.8 5.5 -2.5 48 3.8 CALM 0 6 0 3 1016.2 1016.2 0.0
25/05:30am 8.5 5.8 -2.7 45 4.2 W 2 6 1 3 1015.9 1015.9 0.0
25/05:00am 8.3 5.7 -1.8 49 3.8 N 2 6 1 3 1015.5 1015.5 0.0
25/04:30am 9.7 6.6 -2.6 42 4.6 NNW 4 11 2 6 1015.0 1015.0 0.0
25/04:00am 10.4 5.6 -2.3 41 4.9 W 13 24 7 13 1014.7 1014.7 0.0
25/03:30am 10.9 5.4 -2.1 40 5.0 W 17 26 9 14 1014.8 1014.8 0.0
25/03:00am 11.2 5.7 -1.9 40 5.1 W 17 37 9 20 1015.0 1015.0 0.0
25/02:30am 11.7 7.0 -1.8 39 5.3 W 13 24 7 13 1015.1 1015.1 0.0
25/02:00am 11.0 7.5 -1.7 41 5.0 SW 7 15 4 8 1014.9 1014.9 0.0
25/01:30am 10.8 6.8 -1.9 41 4.9 W 9 15 5 8 1014.7 1014.7 0.0
25/01:00am 11.9 7.1 -2.3 37 5.5 WSW 13 20 7 11 1014.8 1014.8 0.0
25/12:30am 12.0 7.6 -2.6 36 5.6 SW 11 17 6 9 1014.5 1014.5 0.0
25/12:00am 12.8 6.9 -2.6 34 6.0 WSW 19 39 10 21 1014.1 1014.1 0.0
 
Date/Time
EST
Temp
°C
App
Temp
°C
Dew
Point
°C
Rel
Hum
%
Delta-T
°C
Wind Press
QNH
hPa
Press
MSL
hPa
Rain since
9am
mm
Dir  Spd
km/h
Gust
km/h
Spd
kts
Gust
kts
24/11:30pm 13.4 6.2 -2.1 34 6.2 WSW 26 46 14 25 1014.2 1014.2 0.0
24/11:26pm 13.6 6.0 -1.9 34 6.2 WSW 28 46 15 25 1014.1 1014.1 0.0
24/11:21pm 13.8 6.1 -2.6 32 6.5 WSW 28 46 15 25 1014.0 1014.0 0.0
24/11:00pm 13.8 9.0 0.5 40 5.6 WSW 15 24 8 13 1013.5 1013.5 0.0
24/10:30pm 13.9 9.2 1.2 42 5.5 W 15 28 8 15 1013.1 1013.1 0.0
24/10:00pm 13.8 10.3 1.5 43 5.3 WNW 9 22 5 12 1012.7 1012.7 0.0
24/09:30pm 14.6 9.8 0.5 38 6.0 W 15 24 8 13 1012.4 1012.4 0.0
24/09:00pm 14.8 10.3 -0.1 36 6.3 W 13 28 7 15 1011.7 1011.7 0.0
24/08:30pm 14.5 11.5 2.1 43 5.5 W 7 20 4 11 1011.2 1011.2 0.0
24/08:00pm 15.2 11.0 1.4 39 6.0 WNW 13 35 7 19 1011.0 1011.0 0.0
24/07:30pm 15.8 11.4 0.4 35 6.6 W 13 30 7 16 1010.5 1010.5 0.0
24/07:00pm 16.0 11.4 1.3 37 6.5 W 15 32 8 17 1010.0 1010.0 0.0
24/06:30pm 16.2 11.9 3.3 42 5.9 W 15 28 8 15 1009.5 1009.5 0.0
24/06:00pm 17.0 11.4 3.3 40 6.3 W 22 44 12 24 1009.2 1009.2 0.0
24/05:30pm 17.7 12.3 2.5 36 6.9 W 20 41 11 22 1008.3 1008.3 0.0
24/05:00pm 18.2 13.2 1.3 32 7.6 WNW 17 33 9 18 1007.5 1007.5 0.0
24/04:30pm 18.8 13.8 1.3 31 7.9 WNW 17 32 9 17 1006.8 1006.8 0.0
24/04:00pm 19.9 14.5 1.4 29 8.4 W 19 41 10 22 1006.5 1006.5 0.0
24/03:38pm 20.3 13.1 0.7 27 8.8 W 28 59 15 32 1006.3 1006.3 0.0
24/03:30pm 20.7 15.2 0.5 26 9.1 WNW 19 35 10 19 1006.4 1006.4 0.0
24/03:00pm 22.0 15.4 -0.7 22 10.1 W 24 57 13 31 1005.6 1005.6 0.0
24/02:30pm 23.1 17.5 0.2 22 10.4 W 19 48 10 26 1005.3 1005.3 0.0
24/02:00pm 23.3 18.7 3.8 28 9.6 WNW 17 32 9 17 1004.8 1004.8 0.0
24/01:30pm 23.2 19.1 4.2 29 9.3 WNW 15 32 8 17 1005.0 1005.0 0.0
24/01:00pm 23.8 20.5 8.2 37 8.3 WNW 15 24 8 13 1005.4 1005.4 0.0
24/12:30pm 23.6 19.3 7.7 36 8.4 NW 20 39 11 21 1005.5 1005.5 0.0
24/12:00pm 23.8 20.8 9.4 40 7.8 WNW 15 30 8 16 1005.9 1005.9 0.0
24/11:30am 23.4 20.3 8.7 39 7.9 W 15 33 8 18 1006.3 1006.3 0.0
24/11:00am 22.8 20.0 9.9 44 7.0 W 15 35 8 19 1006.8 1006.8 0.0
24/10:30am 21.6 19.4 10.7 50 6.0 NW 13 33 7 18 1007.3 1007.3 0.0
24/10:00am 20.7 19.6 12.1 58 4.8 NW 9 17 5 9 1007.8 1007.8 0.0
24/09:30am 19.0 17.9 13.0 68 3.4 NNW 11 17 6 9 1008.1 1008.1 0.0
24/09:00am 16.0 15.1 12.6 80 1.9 N 9 13 5 7 1008.3 1008.3 0.0
24/08:30am 14.3 14.1 11.8 85 1.3 NNE 4 7 2 4 1008.3 1008.3 0.0
24/08:00am 12.7 13.5 12.5 99 0.1 CALM 0 6 0 3 1008.3 1008.3 0.0
24/07:30am 9.4 9.3 9.3 99 0.0 CALM 0 6 0 3 1008.4 1008.4 0.0
24/07:00am 8.4 7.2 8.1 98 0.1 N 4 9 2 5 1008.2 1008.2 0.0
24/06:30am 7.8 6.8 7.4 97 0.2 SSW 2 11 1 6 1008.4 1008.4 0.0
24/06:00am 7.7 6.7 7.3 97 0.2 SSW 2 6 1 3 1008.3 1008.3 0.0
24/05:30am 8.5 6.8 8.2 98 0.1 SSW 7 9 4 5 1008.2 1008.2 0.0
24/05:00am 8.6 7.4 8.2 97 0.2 SSW 4 9 2 5 1008.0 1008.0 0.0
24/04:31am 8.6 8.2 8.2 97 0.2 CALM 0 0 0 0 1007.8 1007.8 0.0
24/04:30am 8.6 8.2 8.2 97 0.2 CALM 0 0 0 0 1007.8 1007.8 0.0
24/04:03am 8.6 7.8 8.2 97 0.2 SSW 2 6 1 3 1007.8 1007.8 0.0
24/04:00am 9.3 8.7 9.0 98 0.1 S 2 7 1 4 1007.8 1007.8 0.0
24/03:30am 9.9 8.1 9.4 97 0.2 SSW 9 11 5 6 1008.2 1008.2 0.0
24/03:00am 9.9 9.3 9.1 95 0.4 SSW 2 9 1 5 1008.5 1008.5 0.0
24/02:30am 10.5 10.4 9.6 94 0.5 CALM 0 0 0 0 1008.6 1008.6 0.0
24/02:00am 10.9 10.9 9.8 93 0.6 CALM 0 0 0 0 1008.8 1008.8 0.0
24/01:30am 11.5 10.3 10.4 93 0.6 S 7 9 4 5 1009.3 1009.3 0.0
24/01:00am 11.7 11.9 10.4 92 0.7 CALM 0 0 0 0 1009.4 1009.4 0.0
24/12:30am 11.8 10.9 10.5 92 0.7 WSW 6 7 3 4 1009.6 1009.6 0.0
24/12:00am 11.8 12.0 10.5 92 0.7 CALM 0 0 0 0 1009.9 1009.9 0.0
 
Date/Time
EST
Temp
°C
App
Temp
°C
Dew
Point
°C
Rel
Hum
%
Delta-T
°C
Wind Press
QNH
hPa
Press
MSL
hPa
Rain since
9am
mm
Dir  Spd
km/h
Gust
km/h
Spd
kts
Gust
kts
23/11:30pm 11.9 12.1 10.5 91 0.7 CALM 0 0 0 0 1010.1 1010.1 0.0
23/11:00pm 11.9 12.0 10.3 90 0.8 CALM 0 0 0 0 1010.6 1010.6 0.0
23/10:30pm 12.2 12.4 10.6 90 0.8 CALM 0 0 0 0 1010.6 1010.6 0.0
23/10:00pm 12.1 12.2 10.0 87 1.1 CALM 0 0 0 0 1011.1 1011.1 0.0
23/09:30pm 13.2 12.3 10.6 84 1.4 ENE 6 7 3 4 1010.6 1010.6 0.0
23/09:00pm 13.2 12.1 10.6 84 1.4 ENE 7 9 4 5 1010.6 1010.6 0.0
23/08:30pm 13.1 12.2 10.5 84 1.4 NE 6 9 3 5 1011.0 1011.0 0.0
23/08:00pm 13.1 13.3 10.6 85 1.3 CALM 0 0 0 0 1011.2 1011.2 0.0
23/07:30pm 12.6 12.7 10.3 86 1.2 CALM 0 0 0 0 1011.1 1011.1 0.0
23/07:00pm 12.8 12.9 10.3 85 1.3 CALM 0 0 0 0 1011.5 1011.5 0.0
23/06:30pm 13.2 13.4 10.4 83 1.5 CALM 0 0 0 0 1011.3 1011.3 0.0
23/06:00pm 13.8 13.5 10.2 79 1.9 ENE 2 7 1 4 1010.7 1010.7 0.0
23/05:30pm 14.1 12.5 10.1 77 2.1 NE 9 9 5 5 1010.7 1010.7 0.0
23/05:00pm 14.1 13.0 10.1 77 2.1 NNE 6 7 3 4 1010.9 1010.9 0.0
23/04:30pm 15.1 13.9 10.3 73 2.5 NNE 7 9 4 5 1010.6 1010.6 0.0
23/04:00pm 15.8 13.6 9.5 66 3.3 N 11 15 6 8 1010.8 1010.8 0.0
23/03:30pm 17.3 14.2 8.7 57 4.4 N 15 22 8 12 1010.6 1010.6 0.0
23/03:00pm 17.7 15.3 7.2 50 5.3 NNW 9 15 5 8 1010.9 1010.9 0.0
23/02:30pm 17.6 15.2 7.1 50 5.3 NNW 9 11 5 6 1011.3 1011.3 0.0
23/02:00pm 17.4 15.6 8.0 54 4.8 NNW 7 11 4 6 1011.7 1011.7 0.0
23/01:30pm 16.9 15.4 8.6 58 4.3 NNW 6 9 3 5 1012.0 1012.0 0.0
23/01:00pm 17.1 16.0 8.5 57 4.4 W 4 7 2 4 1012.5 1012.5 0.0
23/12:30pm 16.9 15.4 9.3 61 4.0 NNE 7 13 4 7 1013.0 1013.0 0.0
23/12:00pm 16.3 14.8 9.3 63 3.6 N 7 11 4 6 1014.2 1014.2 0.0
23/11:30am 16.9 15.8 9.8 63 3.7 NNW 6 9 3 5 1014.3 1014.3 0.0
23/11:00am 15.0 14.8 9.1 68 3.0 CALM 0 0 0 0 1014.8 1014.8 0.0

Other Formats:

Comma delimited format used in spreadsheet applications
http://www.bom.gov.au/fwo/IDN60801/IDN60801.95570.axf

JavaScript Object Notation format (JSON) in row-major order
http://www.bom.gov.au/fwo/IDN60801/IDN60801.95570.json